createdAt,value
2019-05-11T00:02:01.350Z,11.67
2019-05-11T00:04:30.562Z,11.68
2019-05-11T00:06:59.826Z,11.72
2019-05-11T00:09:28.948Z,11.72
2019-05-11T00:11:58.100Z,11.75
2019-05-11T00:14:27.651Z,11.69
2019-05-11T00:16:56.778Z,11.70
2019-05-11T00:19:25.969Z,11.73
2019-05-11T00:21:55.371Z,11.81
2019-05-11T00:24:24.621Z,11.80
2019-05-11T00:26:53.770Z,11.81
2019-05-11T00:29:22.963Z,11.82
2019-05-11T00:31:52.156Z,11.70
2019-05-11T00:34:21.385Z,11.64
2019-05-11T00:36:50.511Z,11.64
2019-05-11T00:39:19.660Z,11.60
2019-05-11T00:41:48.836Z,11.55
2019-05-11T00:44:18.342Z,11.52
2019-05-11T00:46:47.512Z,11.47
2019-05-11T00:49:16.668Z,11.48
2019-05-11T00:51:45.789Z,11.39
2019-05-11T00:54:14.958Z,11.41
2019-05-11T00:56:44.235Z,11.41
2019-05-11T00:59:21.508Z,11.38
2019-05-11T01:01:44.228Z,11.38
2019-05-11T01:04:13.384Z,11.32
2019-05-11T01:06:42.673Z,11.36
2019-05-11T01:09:11.796Z,11.39
2019-05-11T01:11:40.961Z,11.35
2019-05-11T01:14:10.117Z,11.41
2019-05-11T01:16:39.319Z,11.43
2019-05-11T01:19:08.488Z,11.41
2019-05-11T01:21:37.673Z,11.37
2019-05-11T01:24:07.003Z,11.37
2019-05-11T01:26:36.491Z,11.32
2019-05-11T01:29:05.662Z,11.30
2019-05-11T01:31:34.838Z,11.35
2019-05-11T01:34:03.988Z,11.39
2019-05-11T01:36:33.697Z,11.44
2019-05-11T01:39:02.853Z,11.39
2019-05-11T01:41:32.236Z,11.35
2019-05-11T01:44:01.515Z,11.39
2019-05-11T01:46:30.734Z,11.40
2019-05-11T01:48:59.946Z,11.36
2019-05-11T01:51:29.181Z,11.32
2019-05-11T01:53:58.635Z,11.27
2019-05-11T01:56:27.851Z,11.28
2019-05-11T01:58:56.967Z,11.29
2019-05-11T02:01:26.157Z,11.29
2019-05-11T02:03:55.360Z,11.34
2019-05-11T02:06:24.665Z,11.42
2019-05-11T02:08:53.780Z,11.39
2019-05-11T02:11:23.355Z,11.43
2019-05-11T02:13:52.453Z,11.41
2019-05-11T02:16:21.654Z,11.38
2019-05-11T02:18:50.813Z,11.47
2019-05-11T02:21:19.952Z,11.32
2019-05-11T02:23:49.080Z,11.42
2019-05-11T02:26:18.221Z,11.45
2019-05-11T02:28:47.431Z,11.45
2019-05-11T02:31:16.596Z,11.46
2019-05-11T02:33:45.846Z,11.48
2019-05-11T02:36:15.021Z,11.51
2019-05-11T02:38:44.254Z,11.51
2019-05-11T02:41:13.378Z,11.52
2019-05-11T02:43:42.561Z,11.55
2019-05-11T02:46:11.750Z,11.64
2019-05-11T02:48:41.010Z,11.65
2019-05-11T02:51:10.843Z,11.65
2019-05-11T02:53:43.097Z,11.70
2019-05-11T02:56:12.262Z,11.70
2019-05-11T02:58:41.956Z,11.73
2019-05-11T03:01:11.112Z,11.67
2019-05-11T03:03:40.366Z,11.66
2019-05-11T03:06:09.531Z,11.67
2019-05-11T03:08:38.709Z,11.74
2019-05-11T03:11:07.886Z,11.71
2019-05-11T03:13:37.118Z,11.70
2019-05-11T03:16:06.343Z,11.67
2019-05-11T03:18:35.514Z,11.72
2019-05-11T03:21:04.675Z,11.74
2019-05-11T03:23:33.896Z,11.66
2019-05-11T03:26:03.138Z,11.60
2019-05-11T03:28:32.248Z,11.60
2019-05-11T03:31:01.410Z,11.56
2019-05-11T03:33:30.594Z,11.55
2019-05-11T03:36:00.074Z,11.60
2019-05-11T03:38:29.236Z,11.70
2019-05-11T03:40:58.580Z,11.72
2019-05-11T03:43:27.767Z,11.68
2019-05-11T03:45:56.948Z,11.65
2019-05-11T03:48:26.108Z,11.61
2019-05-11T03:50:55.294Z,11.64
2019-05-11T03:53:24.446Z,11.64
2019-05-11T03:55:53.624Z,11.67
2019-05-11T03:58:25.970Z,11.67
2019-05-11T04:00:53.649Z,11.71
2019-05-11T04:03:22.848Z,11.67
2019-05-11T04:05:51.995Z,11.60
2019-05-11T04:08:21.117Z,11.59
2019-05-11T04:10:50.310Z,11.64
2019-05-11T04:13:19.450Z,11.62
2019-05-11T04:15:48.588Z,11.60
2019-05-11T04:18:17.692Z,11.65
2019-05-11T04:20:46.988Z,11.67
2019-05-11T04:23:16.271Z,11.73
2019-05-11T04:25:45.384Z,11.73
2019-05-11T04:28:14.551Z,11.80
2019-05-11T04:30:43.754Z,11.76
2019-05-11T04:33:12.881Z,11.75
2019-05-11T04:35:42.013Z,11.79
2019-05-11T04:38:11.159Z,11.81
2019-05-11T04:40:40.375Z,11.82
2019-05-11T04:43:09.555Z,11.90
2019-05-11T04:45:38.752Z,11.96
2019-05-11T04:48:08.025Z,11.94
2019-05-11T04:50:37.251Z,11.95
2019-05-11T04:53:06.412Z,11.93
2019-05-11T04:55:35.543Z,11.91
2019-05-11T04:58:04.737Z,11.88
2019-05-11T05:00:33.945Z,12.02
2019-05-11T05:03:04.207Z,12.06
2019-05-11T05:05:33.405Z,12.12
2019-05-11T05:08:09.741Z,12.20
2019-05-11T05:10:33.987Z,12.25
2019-05-11T05:13:10.508Z,12.25
2019-05-11T05:15:34.311Z,12.25
2019-05-11T05:18:03.713Z,12.33
2019-05-11T05:20:32.838Z,12.34
2019-05-11T05:23:02.125Z,12.35
2019-05-11T05:25:31.541Z,12.39
2019-05-11T05:28:00.760Z,12.44
2019-05-11T05:30:29.967Z,12.58
2019-05-11T05:32:59.358Z,12.65
2019-05-11T05:35:28.547Z,12.82
2019-05-11T05:37:57.741Z,12.88
2019-05-11T05:40:27.487Z,12.97
2019-05-11T05:42:56.659Z,13.10
2019-05-11T05:45:25.950Z,13.18
2019-05-11T05:47:55.187Z,13.23
2019-05-11T05:50:24.382Z,13.37
2019-05-11T05:52:53.525Z,13.37
2019-05-11T05:55:22.723Z,13.51
2019-05-11T05:57:51.853Z,13.72
2019-05-11T06:00:21.330Z,14.06
2019-05-11T06:02:50.504Z,14.06
2019-05-11T06:05:19.708Z,14.02
2019-05-11T06:07:48.968Z,14.09
2019-05-11T06:10:18.271Z,14.07
2019-05-11T06:12:47.406Z,13.87
2019-05-11T06:15:17.074Z,13.87
2019-05-11T06:17:46.285Z,13.88
2019-05-11T06:20:15.664Z,13.88
2019-05-11T06:22:44.878Z,14.01
2019-05-11T06:25:14.185Z,14.03
2019-05-11T06:27:43.434Z,14.15
2019-05-11T06:30:12.664Z,14.38
2019-05-11T06:32:41.870Z,14.46
2019-05-11T06:35:11.134Z,14.59
2019-05-11T06:37:40.461Z,14.67
2019-05-11T06:40:10.817Z,14.92
2019-05-11T06:42:39.975Z,15.26
2019-05-11T06:45:09.465Z,15.45
2019-05-11T06:47:38.708Z,15.94
2019-05-11T06:50:08.086Z,15.99
2019-05-11T06:52:37.254Z,15.97
2019-05-11T06:55:06.368Z,15.75
2019-05-11T06:57:35.748Z,15.45
2019-05-11T07:00:05.361Z,15.51
2019-05-11T07:02:34.734Z,15.47
2019-05-11T07:05:03.897Z,15.58
2019-05-11T07:07:46.561Z,15.38
2019-05-11T07:10:04.116Z,15.37
2019-05-11T07:12:33.316Z,15.14
2019-05-11T07:15:02.497Z,14.89
2019-05-11T07:17:31.684Z,15.24
2019-05-11T07:20:00.889Z,15.71
2019-05-11T07:22:30.328Z,15.36
2019-05-11T07:24:59.531Z,15.76
2019-05-11T07:27:28.953Z,16.02
2019-05-11T07:29:58.247Z,16.17
2019-05-11T07:32:29.339Z,16.15
2019-05-11T07:34:58.863Z,16.06
2019-05-11T07:37:28.170Z,15.76
2019-05-11T07:39:58.134Z,15.47
2019-05-11T07:42:28.566Z,15.23
2019-05-11T07:44:58.412Z,15.51
2019-05-11T07:47:27.912Z,15.56
2019-05-11T07:49:57.877Z,15.68
2019-05-11T07:52:28.754Z,15.60
2019-05-11T07:54:58.389Z,15.72
2019-05-11T07:57:28.528Z,16.09
2019-05-11T07:59:57.948Z,16.28
2019-05-11T08:02:28.529Z,16.51
2019-05-11T08:04:58.722Z,16.73
2019-05-11T08:07:28.631Z,17.06
2019-05-11T08:09:58.756Z,17.25
2019-05-11T08:12:28.603Z,17.47
2019-05-11T08:15:08.091Z,17.35
2019-05-11T08:17:28.796Z,17.46
2019-05-11T08:19:58.191Z,17.47
2019-05-11T08:22:28.447Z,17.64
2019-05-11T08:24:58.604Z,17.72
2019-05-11T08:27:28.575Z,17.67
2019-05-11T08:29:58.092Z,17.14
2019-05-11T08:32:28.607Z,16.63
2019-05-11T08:34:58.152Z,16.49
2019-05-11T08:37:28.410Z,16.19
2019-05-11T08:39:58.465Z,16.11
2019-05-11T08:42:28.847Z,15.95
2019-05-11T08:45:15.248Z,16.15
2019-05-11T08:47:29.070Z,16.16
2019-05-11T08:49:58.958Z,16.27
2019-05-11T08:52:28.352Z,16.02
2019-05-11T08:54:57.869Z,15.78
2019-05-11T08:57:28.568Z,15.58
2019-05-11T08:59:58.069Z,15.49
2019-05-11T09:02:27.950Z,15.39
2019-05-11T09:04:58.911Z,15.50
2019-05-11T09:07:28.270Z,16.03
2019-05-11T09:09:58.588Z,16.02
2019-05-11T09:12:28.761Z,16.11
2019-05-11T09:14:58.372Z,16.41
2019-05-11T09:17:28.926Z,16.61
2019-05-11T09:19:58.412Z,17.20
2019-05-11T09:22:28.484Z,17.26
2019-05-11T09:24:58.386Z,17.31
2019-05-11T09:27:28.607Z,16.99
2019-05-11T09:29:58.746Z,16.81
2019-05-11T09:32:28.636Z,16.43
2019-05-11T09:35:04.185Z,16.75
2019-05-11T09:37:33.428Z,17.49
2019-05-11T09:40:03.123Z,17.56
2019-05-11T09:42:35.318Z,17.72
2019-05-11T09:45:04.734Z,16.87
2019-05-11T09:47:34.034Z,17.13
2019-05-11T09:50:03.248Z,16.97
2019-05-11T09:52:32.862Z,16.56
2019-05-11T09:55:02.077Z,16.46
2019-05-11T09:57:31.274Z,16.46
2019-05-11T10:00:00.413Z,16.43
2019-05-11T10:02:29.663Z,16.42
2019-05-11T10:04:58.836Z,16.32
2019-05-11T10:07:28.924Z,16.35
2019-05-11T10:09:59.127Z,16.39
2019-05-11T10:12:28.731Z,16.53
2019-05-11T10:14:59.124Z,16.10
2019-05-11T10:17:28.862Z,16.06
2019-05-11T10:19:58.445Z,16.17
2019-05-11T10:22:27.937Z,16.04
2019-05-11T10:24:58.280Z,15.95
2019-05-11T10:27:28.120Z,16.14
2019-05-11T10:29:58.942Z,16.19
2019-05-11T10:32:28.792Z,17.01
2019-05-11T10:34:58.469Z,17.42
2019-05-11T10:37:28.338Z,18.35
2019-05-11T10:39:57.887Z,17.72
2019-05-11T10:42:28.394Z,17.74
2019-05-11T10:44:58.406Z,17.47
2019-05-11T10:47:27.877Z,17.18
2019-05-11T10:49:57.917Z,17.21
2019-05-11T10:52:28.583Z,18.20
2019-05-11T10:54:58.702Z,18.43
2019-05-11T10:57:28.382Z,17.81
2019-05-11T10:59:58.052Z,17.78
2019-05-11T11:02:28.002Z,18.54
2019-05-11T11:04:58.906Z,18.38
2019-05-11T11:07:29.029Z,18.20
2019-05-11T11:09:58.235Z,17.95
2019-05-11T11:12:27.998Z,18.29
2019-05-11T11:14:58.697Z,19.70
2019-05-11T11:17:28.753Z,20.18
2019-05-11T11:19:58.196Z,19.38
2019-05-11T11:22:36.988Z,19.10
2019-05-11T11:24:59.015Z,19.09
2019-05-11T11:27:29.187Z,19.60
2019-05-11T11:29:58.444Z,19.95
2019-05-11T11:32:28.017Z,20.40
2019-05-11T11:34:57.922Z,20.91
2019-05-11T11:37:28.135Z,20.97
2019-05-11T11:39:58.148Z,21.45
2019-05-11T11:42:28.352Z,20.17
2019-05-11T11:44:58.789Z,19.69
2019-05-11T11:47:28.231Z,20.35
2019-05-11T11:49:58.370Z,20.52
2019-05-11T11:52:27.786Z,19.78
2019-05-11T11:54:58.612Z,19.25
2019-05-11T11:57:28.373Z,18.04
2019-05-11T11:59:58.761Z,16.94
2019-05-11T12:02:28.086Z,16.59
2019-05-11T12:04:58.127Z,16.48
2019-05-11T12:07:28.529Z,16.51
2019-05-11T12:09:58.745Z,16.45
2019-05-11T12:12:28.094Z,16.50
2019-05-11T12:14:58.429Z,16.82
2019-05-11T12:17:28.571Z,17.50
2019-05-11T12:19:58.570Z,17.14
2019-05-11T12:22:28.116Z,18.41
2019-05-11T12:24:58.910Z,19.49
2019-05-11T12:27:28.654Z,19.87
2019-05-11T12:29:58.325Z,21.52
2019-05-11T12:32:49.159Z,21.59
2019-05-11T12:35:18.719Z,20.79
2019-05-11T12:37:48.694Z,20.86
2019-05-11T12:40:18.635Z,20.26
2019-05-11T12:42:48.883Z,19.14
2019-05-11T12:45:18.826Z,19.41
2019-05-11T12:47:48.411Z,19.89
2019-05-11T12:50:18.684Z,18.89
2019-05-11T12:52:51.258Z,18.23
2019-05-11T12:55:20.719Z,15.04
2019-05-11T12:57:49.898Z,13.53
2019-05-11T13:00:20.142Z,12.82
2019-05-11T13:02:49.403Z,12.69
2019-05-11T13:05:18.623Z,12.78
2019-05-11T13:07:48.386Z,12.94
2019-05-11T13:10:18.010Z,12.94
2019-05-11T13:12:49.259Z,13.25
2019-05-11T13:15:18.112Z,13.45
2019-05-11T13:17:49.211Z,15.29
2019-05-11T13:20:18.507Z,15.29
2019-05-11T13:22:48.847Z,16.37
2019-05-11T13:25:18.357Z,16.74
2019-05-11T13:27:49.262Z,17.15
2019-05-11T13:30:18.962Z,16.26
2019-05-11T13:32:48.965Z,15.71
2019-05-11T13:35:18.588Z,16.43
2019-05-11T13:37:48.052Z,16.17
2019-05-11T13:40:18.521Z,16.47
2019-05-11T13:42:48.998Z,16.30
2019-05-11T13:45:18.674Z,16.23
2019-05-11T13:47:54.792Z,16.61
2019-05-11T13:50:18.959Z,17.13
2019-05-11T13:52:48.162Z,17.34
2019-05-11T13:55:18.159Z,16.42
2019-05-11T13:57:48.602Z,15.83
2019-05-11T14:00:18.280Z,15.64
2019-05-11T14:02:48.604Z,15.13
2019-05-11T14:05:18.184Z,14.91
2019-05-11T14:07:48.243Z,14.60
2019-05-11T14:10:18.248Z,14.38
2019-05-11T14:12:47.902Z,14.18
2019-05-11T14:15:18.875Z,13.92
2019-05-11T14:17:48.858Z,13.97
2019-05-11T14:20:19.431Z,14.16
2019-05-11T14:22:48.619Z,14.19
2019-05-11T14:25:18.577Z,14.42
2019-05-11T14:27:48.305Z,14.83
2019-05-11T14:30:19.073Z,14.80
2019-05-11T14:32:48.545Z,15.24
2019-05-11T14:35:18.906Z,15.29
2019-05-11T14:37:48.750Z,15.60
2019-05-11T14:40:18.406Z,15.55
2019-05-11T14:42:48.923Z,15.77
2019-05-11T14:45:18.678Z,15.79
2019-05-11T14:47:48.245Z,15.99
2019-05-11T14:50:18.794Z,16.22
2019-05-11T14:52:49.368Z,15.92
2019-05-11T14:55:18.719Z,15.41
2019-05-11T14:57:48.783Z,15.36
2019-05-11T15:00:18.895Z,14.99
2019-05-11T15:02:49.558Z,14.99
2019-05-11T15:05:20.778Z,15.20
2019-05-11T15:07:52.409Z,15.20
2019-05-11T15:10:22.256Z,15.29
2019-05-11T15:12:51.439Z,15.17
2019-05-11T15:15:20.894Z,14.80
2019-05-11T15:17:50.127Z,14.73
2019-05-11T15:20:19.841Z,14.68
2019-05-11T15:22:49.237Z,14.80
2019-05-11T15:25:19.750Z,14.76
2019-05-11T15:27:49.386Z,14.93
2019-05-11T15:30:19.138Z,14.83
2019-05-11T15:32:48.608Z,14.62
2019-05-11T15:35:18.790Z,14.40
2019-05-11T15:37:48.457Z,14.28
2019-05-11T15:40:19.266Z,14.44
2019-05-11T15:42:48.935Z,14.56
2019-05-11T15:45:19.071Z,14.61
2019-05-11T15:47:48.897Z,14.72
2019-05-11T15:50:20.192Z,15.08
2019-05-11T15:52:49.367Z,14.69
2019-05-11T15:55:19.434Z,14.68
2019-05-11T15:57:48.742Z,14.43
2019-05-11T16:00:18.569Z,13.97
2019-05-11T16:02:49.075Z,13.92
2019-05-11T16:05:18.662Z,13.73
2019-05-11T16:07:49.211Z,13.31
2019-05-11T16:10:19.113Z,13.31
2019-05-11T16:12:48.828Z,13.34
2019-05-11T16:15:19.428Z,13.26
2019-05-11T16:17:49.379Z,12.94
2019-05-11T16:20:19.727Z,12.84
2019-05-11T16:22:49.191Z,12.96
2019-05-11T16:25:20.128Z,12.94
2019-05-11T16:27:51.364Z,12.87
2019-05-11T16:30:22.016Z,12.82
2019-05-11T16:32:51.314Z,12.83
2019-05-11T16:35:20.444Z,12.96
2019-05-11T16:37:49.656Z,12.81
2019-05-11T16:40:20.793Z,12.62
2019-05-11T16:42:50.015Z,12.46
2019-05-11T16:45:19.615Z,12.50
2019-05-11T16:47:49.040Z,12.57
2019-05-11T16:50:18.492Z,12.50
2019-05-11T16:52:48.473Z,12.51
2019-05-11T16:55:18.488Z,12.46
2019-05-11T16:57:48.647Z,12.29
2019-05-11T17:00:18.632Z,12.61
2019-05-11T17:02:49.036Z,12.60
2019-05-11T17:05:26.599Z,12.52
2019-05-11T17:07:49.568Z,12.44
2019-05-11T17:10:19.492Z,12.35
2019-05-11T17:12:49.098Z,12.40
2019-05-11T17:15:18.885Z,12.22
2019-05-11T17:17:51.870Z,12.27
2019-05-11T17:20:21.059Z,12.21
2019-05-11T17:22:53.728Z,12.29
2019-05-11T17:25:21.700Z,12.11
2019-05-11T17:27:50.991Z,12.14
2019-05-11T17:30:20.200Z,11.99
2019-05-11T17:32:50.228Z,12.00
2019-05-11T17:35:19.675Z,11.91
2019-05-11T17:37:49.078Z,11.94
2019-05-11T17:40:23.122Z,11.97
2019-05-11T17:42:53.266Z,12.01
2019-05-11T17:45:20.794Z,11.89
2019-05-11T17:47:50.121Z,11.80
2019-05-11T17:50:19.557Z,11.94
2019-05-11T17:52:48.805Z,11.83
2019-05-11T17:55:18.595Z,11.75
2019-05-11T17:57:49.554Z,11.63
2019-05-11T18:00:20.093Z,11.62
2019-05-11T18:02:49.753Z,11.37
2019-05-11T18:05:19.133Z,11.36
2019-05-11T18:07:48.347Z,11.33
2019-05-11T18:10:18.555Z,11.28
2019-05-11T18:12:48.577Z,11.25
2019-05-11T18:15:19.275Z,11.16
2019-05-11T18:17:49.042Z,11.18
2019-05-11T18:20:21.536Z,11.12
2019-05-11T18:22:49.472Z,11.16
2019-05-11T18:25:18.821Z,11.17
2019-05-11T18:27:48.524Z,11.20
2019-05-11T18:30:18.445Z,11.15
2019-05-11T18:32:48.951Z,11.11
2019-05-11T18:35:19.584Z,11.07
2019-05-11T18:37:49.056Z,10.96
2019-05-11T18:40:18.975Z,10.93
2019-05-11T18:42:48.971Z,10.92
2019-05-11T18:45:19.513Z,10.96
2019-05-11T18:47:49.185Z,10.92
2019-05-11T18:50:29.751Z,10.86
2019-05-11T18:52:50.256Z,10.84
2019-05-11T18:55:19.430Z,10.85
2019-05-11T18:57:51.482Z,10.89
2019-05-11T19:00:20.751Z,10.84
2019-05-11T19:02:50.087Z,10.84
2019-05-11T19:05:19.557Z,10.80
2019-05-11T19:07:48.893Z,10.76
2019-05-11T19:10:18.189Z,10.78
2019-05-11T19:12:48.762Z,10.67
2019-05-11T19:15:19.133Z,10.58
2019-05-11T19:17:49.212Z,10.54
2019-05-11T19:20:18.837Z,10.48
2019-05-11T19:22:48.541Z,10.44
2019-05-11T19:25:18.364Z,10.38
2019-05-11T19:27:50.272Z,10.44
2019-05-11T19:30:19.006Z,10.39
2019-05-11T19:32:48.878Z,10.35
2019-05-11T19:35:21.204Z,10.42
2019-05-11T19:37:49.148Z,10.33
2019-05-11T19:40:18.364Z,10.33
2019-05-11T19:42:54.661Z,10.31
2019-05-11T19:45:24.163Z,10.28
2019-05-11T19:47:53.372Z,10.32
2019-05-11T19:50:22.667Z,10.29
2019-05-11T19:52:51.890Z,10.26
2019-05-11T19:55:21.160Z,10.27
2019-05-11T19:57:50.390Z,10.27
2019-05-11T20:00:19.658Z,10.15
2019-05-11T20:02:49.109Z,10.07
2019-05-11T20:05:18.664Z,10.15
2019-05-11T20:07:48.820Z,10.12
2019-05-11T20:10:19.099Z,10.16
2019-05-11T20:12:48.744Z,10.19
2019-05-11T20:15:18.857Z,10.11
2019-05-11T20:17:48.942Z,10.03
2019-05-11T20:20:18.878Z,10.08
2019-05-11T20:22:48.753Z,10.06
2019-05-11T20:25:19.139Z,10.04
2019-05-11T20:27:49.033Z,10.08
2019-05-11T20:30:19.091Z,10.02
2019-05-11T20:32:49.159Z,9.98
2019-05-11T20:35:18.913Z,9.90
2019-05-11T20:37:48.152Z,9.94
2019-05-11T20:40:18.304Z,9.90
2019-05-11T20:42:48.710Z,9.84
2019-05-11T20:45:18.833Z,9.87
2019-05-11T20:47:48.871Z,9.83
2019-05-11T20:50:18.948Z,9.81
2019-05-11T20:52:48.392Z,9.79
2019-05-11T20:55:18.495Z,9.82
2019-05-11T20:57:48.678Z,9.81
2019-05-11T21:00:18.886Z,9.78
2019-05-11T21:02:49.115Z,9.77
2019-05-11T21:05:18.807Z,9.67
2019-05-11T21:07:48.087Z,9.67
2019-05-11T21:10:17.342Z,9.67
2019-05-11T21:12:46.526Z,9.59
2019-05-11T21:15:16.110Z,9.60
2019-05-11T21:17:45.272Z,9.57
2019-05-11T21:20:17.949Z,9.57
2019-05-11T21:22:48.608Z,9.56
2019-05-11T21:25:18.352Z,9.55
2019-05-11T21:27:48.707Z,9.53
2019-05-11T21:30:18.657Z,9.50
2019-05-11T21:32:47.968Z,9.47
2019-05-11T21:35:19.292Z,9.41
2019-05-11T21:37:48.790Z,9.33
2019-05-11T21:40:18.253Z,9.30
2019-05-11T21:42:47.726Z,9.26
2019-05-11T21:45:18.377Z,9.23
2019-05-11T21:47:48.954Z,9.20
2019-05-11T21:50:19.729Z,9.18
2019-05-11T21:52:49.024Z,9.19
2019-05-11T21:55:18.182Z,9.20
2019-05-11T21:57:49.680Z,9.22
2019-05-11T22:00:19.113Z,9.21
2019-05-11T22:02:48.701Z,9.20
2019-05-11T22:05:20.561Z,9.23
2019-05-11T22:07:49.121Z,9.24
2019-05-11T22:10:18.390Z,9.24
2019-05-11T22:12:49.021Z,9.22
2019-05-11T22:15:19.275Z,9.24
2019-05-11T22:17:48.487Z,9.27
2019-05-11T22:20:18.324Z,9.27
2019-05-11T22:22:47.885Z,9.22
2019-05-11T22:25:18.381Z,9.17
2019-05-11T22:27:48.803Z,9.14
2019-05-11T22:30:18.664Z,9.18
2019-05-11T22:32:48.053Z,9.13
2019-05-11T22:35:18.265Z,9.11
2019-05-11T22:37:49.103Z,9.07
2019-05-11T22:40:18.791Z,9.11
2019-05-11T22:42:48.016Z,9.13
2019-05-11T22:45:18.653Z,9.17
2019-05-11T22:47:48.216Z,9.10
2019-05-11T22:50:18.589Z,9.00
2019-05-11T22:52:48.672Z,8.93
2019-05-11T22:55:18.784Z,8.85
2019-05-11T22:57:48.660Z,8.69
2019-05-11T23:00:21.963Z,8.60
2019-05-11T23:02:51.110Z,8.52
2019-05-11T23:05:20.284Z,8.46
2019-05-11T23:07:49.527Z,8.35
2019-05-11T23:10:18.769Z,8.34
2019-05-11T23:12:48.362Z,8.29
2019-05-11T23:15:19.194Z,8.23
2019-05-11T23:17:48.429Z,8.19
2019-05-11T23:20:17.798Z,8.24
2019-05-11T23:22:56.696Z,8.21
2019-05-11T23:25:19.384Z,8.22
2019-05-11T23:27:49.050Z,8.25
2019-05-11T23:30:20.285Z,8.30
2019-05-11T23:32:49.861Z,8.32
2019-05-11T23:35:19.329Z,8.46
2019-05-11T23:37:49.772Z,8.42
2019-05-11T23:40:20.030Z,8.40
2019-05-11T23:42:49.476Z,8.35
2019-05-11T23:45:19.329Z,8.24
2019-05-11T23:47:49.249Z,8.21
2019-05-11T23:50:19.443Z,8.23
2019-05-11T23:53:04.189Z,8.15
2019-05-11T23:55:19.880Z,8.12
2019-05-11T23:57:49.253Z,8.02
